createdAt,value
2022-08-25T00:04:07.951Z,7.40
2022-08-25T00:09:38.695Z,6.90
2022-08-25T00:14:55.909Z,8.20
2022-08-25T00:20:58.673Z,7.50
2022-08-25T00:26:32.477Z,8.60
2022-08-25T00:32:25.689Z,7.10
2022-08-25T00:38:01.248Z,7.30
2022-08-25T00:43:46.256Z,7.40
2022-08-25T00:49:25.709Z,7.80
2022-08-25T00:55:11.651Z,7.60
2022-08-25T01:00:50.674Z,8.40
2022-08-25T01:06:14.004Z,8.00
2022-08-25T01:11:21.671Z,7.50
2022-08-25T01:16:44.072Z,7.70
2022-08-25T01:27:18.940Z,8.70
2022-08-25T01:32:46.938Z,8.50
2022-08-25T01:38:31.418Z,9.30
2022-08-25T01:43:58.688Z,9.50
2022-08-25T01:49:15.130Z,7.50
2022-08-25T01:54:23.412Z,10.20
2022-08-25T01:59:50.472Z,13.20
2022-08-25T02:04:55.617Z,13.00
2022-08-25T02:10:15.799Z,12.50
2022-08-25T02:15:54.981Z,11.80
2022-08-25T02:21:18.245Z,12.40
2022-08-25T02:26:36.371Z,12.00
2022-08-25T02:31:59.942Z,11.00
2022-08-25T02:37:33.534Z,12.40
2022-08-25T02:42:59.998Z,12.70
2022-08-25T02:48:33.373Z,13.60
2022-08-25T02:53:46.337Z,12.20
2022-08-25T03:04:12.268Z,12.20
2022-08-25T03:09:50.296Z,12.40
2022-08-25T03:14:58.015Z,13.30
2022-08-25T03:20:39.214Z,13.30
2022-08-25T03:26:27.109Z,13.10
2022-08-25T03:31:47.964Z,13.20
2022-08-25T03:37:10.412Z,12.10
2022-08-25T03:42:25.143Z,11.60
2022-08-25T03:48:19.712Z,12.30
2022-08-25T03:54:01.935Z,10.90
2022-08-25T03:59:30.088Z,10.70
2022-08-25T04:04:50.553Z,12.10
2022-08-25T04:10:29.954Z,11.10
2022-08-25T04:16:14.331Z,10.20
2022-08-25T04:21:49.526Z,11.10
2022-08-25T04:27:16.581Z,10.30
2022-08-25T04:33:07.357Z,11.80
2022-08-25T04:38:33.190Z,11.10
2022-08-25T04:44:01.206Z,9.00
2022-08-25T04:50:04.715Z,10.30
2022-08-25T04:56:03.705Z,11.00
2022-08-25T05:02:22.716Z,10.70
2022-08-25T05:08:25.763Z,11.20
2022-08-25T05:13:43.112Z,11.60
2022-08-25T05:19:53.841Z,10.60
2022-08-25T05:25:29.036Z,10.80
2022-08-25T05:30:34.081Z,11.30
2022-08-25T05:35:53.423Z,11.20
2022-08-25T05:41:26.253Z,10.10
2022-08-25T05:46:52.597Z,11.20
2022-08-25T05:52:20.401Z,9.50
2022-08-25T05:57:27.652Z,9.20
2022-08-25T06:02:42.180Z,8.50
2022-08-25T06:07:51.616Z,8.70
2022-08-25T06:13:07.609Z,8.50
2022-08-25T06:18:22.581Z,7.40
2022-08-25T06:23:36.761Z,6.50
2022-08-25T06:28:55.373Z,8.60
2022-08-25T06:33:59.356Z,7.70
2022-08-25T06:39:02.647Z,7.30
2022-08-25T06:44:11.731Z,7.00
2022-08-25T06:49:21.065Z,8.30
2022-08-25T06:54:23.390Z,8.00
2022-08-25T06:59:32.314Z,9.40
2022-08-25T07:04:38.570Z,9.30
2022-08-25T07:09:43.923Z,8.80
2022-08-25T07:15:03.526Z,11.30
2022-08-25T07:20:14.915Z,11.90
2022-08-25T07:25:36.400Z,10.20
2022-08-25T07:30:38.548Z,7.90
2022-08-25T07:35:44.315Z,9.30
2022-08-25T07:40:54.592Z,12.30
2022-08-25T07:46:20.866Z,17.00
2022-08-25T07:51:23.488Z,15.30
2022-08-25T07:56:34.590Z,15.20
2022-08-25T08:01:38.574Z,13.80
2022-08-25T08:07:02.986Z,9.90
2022-08-25T08:12:12.098Z,8.40
2022-08-25T08:17:18.513Z,8.10
2022-08-25T08:22:21.878Z,8.20
2022-08-25T08:27:33.521Z,9.00
2022-08-25T08:33:08.206Z,7.60
2022-08-25T08:38:20.873Z,7.20
2022-08-25T08:43:31.488Z,7.30
2022-08-25T08:49:05.215Z,7.90
2022-08-25T08:54:19.403Z,8.50
2022-08-25T08:59:30.158Z,8.10
2022-08-25T09:05:15.990Z,8.40
2022-08-25T09:10:25.205Z,7.90
2022-08-25T09:16:33.799Z,7.70
2022-08-25T09:22:33.982Z,7.60
2022-08-25T09:27:44.182Z,9.00
2022-08-25T09:33:05.281Z,8.40
2022-08-25T09:38:13.365Z,8.10
2022-08-25T09:43:34.498Z,8.70
2022-08-25T09:48:56.704Z,8.60
2022-08-25T09:54:17.998Z,8.80
2022-08-25T09:59:39.994Z,8.80
2022-08-25T10:05:25.303Z,9.10
2022-08-25T10:10:41.884Z,8.80
2022-08-25T10:16:20.301Z,10.00
2022-08-25T10:21:26.026Z,9.20
2022-08-25T10:26:48.937Z,8.60
2022-08-25T10:32:00.279Z,9.30
2022-08-25T10:37:33.351Z,8.50
2022-08-25T10:43:08.188Z,9.60
2022-08-25T10:48:45.690Z,9.10
2022-08-25T10:54:19.782Z,8.00
2022-08-25T11:00:03.918Z,8.70
2022-08-25T11:05:45.344Z,10.80
2022-08-25T11:11:26.344Z,10.20
2022-08-25T11:16:35.989Z,8.50
2022-08-25T11:22:10.101Z,10.00
2022-08-25T11:27:21.662Z,9.40
2022-08-25T11:32:27.546Z,9.50
2022-08-25T11:37:33.808Z,9.50
2022-08-25T11:42:43.113Z,9.50
2022-08-25T11:48:15.985Z,10.40
2022-08-25T11:53:42.161Z,9.10
2022-08-25T12:04:12.632Z,8.50
2022-08-25T12:09:20.946Z,8.20
2022-08-25T12:14:47.864Z,8.90
2022-08-25T12:19:56.326Z,8.50
2022-08-25T12:25:14.107Z,10.10
2022-08-25T12:30:40.306Z,8.60
2022-08-25T12:36:31.615Z,9.00
2022-08-25T12:41:59.846Z,8.30
2022-08-25T12:47:33.007Z,7.30
2022-08-25T12:52:41.271Z,7.10
2022-08-25T12:58:01.102Z,8.00
2022-08-25T13:03:50.215Z,6.90
2022-08-25T13:09:42.452Z,6.40
2022-08-25T13:14:57.769Z,6.60
2022-08-25T13:20:33.480Z,8.90
2022-08-25T13:26:05.045Z,7.20
2022-08-25T13:31:28.410Z,7.40
2022-08-25T13:36:58.854Z,7.90
2022-08-25T13:42:17.657Z,7.10
2022-08-25T13:47:43.601Z,7.40
2022-08-25T13:53:32.097Z,6.80
2022-08-25T13:58:45.499Z,7.20
2022-08-25T14:03:49.768Z,5.80
2022-08-25T14:08:58.145Z,6.50
2022-08-25T14:14:12.547Z,6.70
2022-08-25T14:19:20.340Z,6.70
2022-08-25T14:24:24.369Z,6.50
2022-08-25T14:29:35.818Z,5.30
2022-08-25T14:34:52.668Z,6.70
2022-08-25T14:39:55.531Z,6.60
2022-08-25T14:45:00.474Z,5.70
2022-08-25T14:50:07.555Z,6.40
2022-08-25T14:55:17.335Z,6.30
2022-08-25T15:00:40.936Z,5.50
2022-08-25T15:05:43.558Z,4.50
2022-08-25T15:10:49.068Z,5.70
2022-08-25T15:15:54.895Z,5.70
2022-08-25T15:21:04.426Z,5.30
2022-08-25T15:26:11.654Z,5.00
2022-08-25T15:31:35.137Z,4.90
2022-08-25T15:36:37.984Z,4.90
2022-08-25T15:41:42.645Z,8.60
2022-08-25T15:46:50.104Z,5.60
2022-08-25T15:52:06.759Z,5.60
2022-08-25T15:57:10.540Z,5.40
2022-08-25T16:02:27.346Z,5.00
2022-08-25T16:07:30.560Z,4.90
2022-08-25T16:12:40.149Z,5.00
2022-08-25T16:17:50.609Z,4.50
2022-08-25T16:23:03.749Z,4.70
2022-08-25T16:28:06.783Z,5.40
2022-08-25T16:33:26.095Z,5.20
2022-08-25T16:38:31.010Z,5.60
2022-08-25T16:43:33.235Z,5.10
2022-08-25T16:48:38.000Z,4.80
2022-08-25T16:54:00.629Z,5.50
2022-08-25T16:59:14.895Z,4.60
2022-08-25T17:04:44.358Z,4.40
2022-08-25T17:10:18.127Z,5.00
2022-08-25T17:15:23.879Z,4.80
2022-08-25T17:20:45.227Z,5.00
2022-08-25T17:26:15.285Z,5.60
2022-08-25T17:31:18.367Z,4.40
2022-08-25T17:36:28.671Z,5.50
2022-08-25T17:41:32.245Z,6.80
2022-08-25T17:46:47.630Z,6.50
2022-08-25T17:52:22.520Z,5.70
2022-08-25T17:57:37.617Z,5.50
2022-08-25T18:02:43.893Z,5.90
2022-08-25T18:07:48.209Z,5.20
2022-08-25T18:13:12.957Z,5.40
2022-08-25T18:18:19.398Z,6.10
2022-08-25T18:23:50.124Z,6.10
2022-08-25T18:28:55.987Z,6.20
2022-08-25T18:34:01.057Z,6.20
2022-08-25T18:39:23.235Z,5.60
2022-08-25T18:44:27.716Z,6.50
2022-08-25T18:49:30.233Z,6.40
2022-08-25T18:54:32.554Z,5.90
2022-08-25T18:59:40.870Z,8.40
2022-08-25T19:04:52.848Z,6.50
2022-08-25T19:09:55.248Z,7.20
2022-08-25T19:14:58.129Z,7.60
2022-08-25T19:20:05.528Z,7.10
2022-08-25T19:25:14.275Z,6.80
2022-08-25T19:30:22.215Z,6.60
2022-08-25T19:35:31.914Z,6.70
2022-08-25T19:40:42.733Z,6.80
2022-08-25T19:45:49.076Z,6.90
2022-08-25T19:50:56.206Z,6.60
2022-08-25T19:56:08.800Z,6.60
2022-08-25T20:01:18.428Z,6.60
2022-08-25T20:06:20.853Z,6.80
2022-08-25T20:11:27.532Z,6.70
2022-08-25T20:16:36.675Z,6.90
2022-08-25T20:21:45.098Z,8.10
2022-08-25T20:27:20.639Z,8.50
2022-08-25T20:32:55.735Z,9.00
2022-08-25T20:38:04.960Z,8.10
2022-08-25T20:43:47.434Z,8.40
2022-08-25T20:49:06.220Z,7.50
2022-08-25T20:55:08.534Z,7.20
2022-08-25T21:00:18.165Z,7.80
2022-08-25T21:05:29.647Z,8.40
2022-08-25T21:11:03.604Z,8.70
2022-08-25T21:16:18.899Z,8.10
2022-08-25T21:21:30.484Z,8.20
2022-08-25T21:26:35.844Z,8.10
2022-08-25T21:31:41.034Z,8.90
2022-08-25T21:36:57.144Z,9.80
2022-08-25T21:47:21.546Z,10.00
2022-08-25T21:52:24.060Z,9.20
2022-08-25T21:57:36.745Z,9.70
2022-08-25T22:02:44.231Z,10.10
2022-08-25T22:07:49.469Z,10.10
2022-08-25T22:12:55.092Z,9.90
2022-08-25T22:17:57.607Z,9.20
2022-08-25T22:23:09.727Z,9.80
2022-08-25T22:28:31.707Z,10.00
2022-08-25T22:33:38.038Z,9.80
2022-08-25T22:38:59.801Z,9.30
2022-08-25T22:44:09.424Z,9.80
2022-08-25T22:49:35.594Z,9.80
2022-08-25T22:54:44.264Z,10.10
2022-08-25T23:00:14.297Z,10.60
2022-08-25T23:05:24.637Z,11.20
2022-08-25T23:10:33.362Z,11.70
2022-08-25T23:15:36.835Z,10.60
2022-08-25T23:21:05.331Z,9.70
2022-08-25T23:27:05.794Z,10.00
2022-08-25T23:32:14.053Z,9.20
2022-08-25T23:37:22.852Z,8.90
2022-08-25T23:42:34.497Z,8.50
2022-08-25T23:47:52.609Z,9.30
2022-08-25T23:52:55.446Z,9.30
2022-08-25T23:58:10.673Z,10.00
